Accueil
METAR-TAF:

METAR-TAF

Aéroports :

Padoue, Italie

latitude: 45-23-45N, longitude: 11-50-53E, altitude: 13 m

Observation

Le bulletin a été fait il y a 25 heures et 4 minutes, à 07:00 UTC
Vent 4 kt de nord, variant entre nord-ouest et nord/nord-est
Température 7°C
Humidité 76%
Pression 1016 hPa
Visibilité 10 km ou plus
Nuages épars à une hauteur de 4500 ft

METAR: LIPU 290700Z 36004KT 320V030 9999 SCT045 07/03 Q1016

Heure: 09:04 (08:04 UTC)


TAF: absent

Observations et prévisions météorologiques de plus de 4000 aéroports (messages METAR et TAF).

Les stations disponibles sont représentées par des disques jaunes et rouges sur la carte.

Passer la souris dessus pour voir le nom de la station.

Cliquer dessus pour voir les observations et prévisions météorologiques.

Pour changer de carte: cliquez sur les boutons verts avec une croix noire pour zoomer, sur le bouton vert avec un tiret pour effectuer un zoom arrière, ou sur les flèches vertes pour les cartes adjacentes.


METAR-TAF: